sensor_id;sensor_type;location;lat;lon;timestamp;P1;durP1;ratioP1;P2;durP2;ratioP2
65853;SDS011;52627;48.838;2.402;2023-11-21T00:02:08;8.00;;;3.50;;
65853;SDS011;52627;48.838;2.402;2023-11-21T00:04:36;8.30;;;3.60;;
65853;SDS011;52627;48.838;2.402;2023-11-21T00:07:05;7.60;;;3.30;;
65853;SDS011;52627;48.838;2.402;2023-11-21T00:09:33;8.20;;;3.30;;
65853;SDS011;52627;48.838;2.402;2023-11-21T00:12:02;8.60;;;3.60;;
65853;SDS011;52627;48.838;2.402;2023-11-21T00:14:30;9.40;;;3.30;;
65853;SDS011;52627;48.838;2.402;2023-11-21T00:16:59;7.70;;;3.40;;
65853;SDS011;52627;48.838;2.402;2023-11-21T00:19:27;11.10;;;3.20;;
65853;SDS011;52627;48.838;2.402;2023-11-21T00:21:55;5.90;;;2.80;;
65853;SDS011;52627;48.838;2.402;2023-11-21T00:24:25;7.40;;;3.30;;
65853;SDS011;52627;48.838;2.402;2023-11-21T00:26:53;5.80;;;3.20;;
65853;SDS011;52627;48.838;2.402;2023-11-21T00:29:20;10.50;;;4.10;;
65853;SDS011;52627;48.838;2.402;2023-11-21T00:31:48;8.80;;;3.40;;
65853;SDS011;52627;48.838;2.402;2023-11-21T00:34:16;8.00;;;3.50;;
65853;SDS011;52627;48.838;2.402;2023-11-21T00:36:43;9.00;;;3.10;;
65853;SDS011;52627;48.838;2.402;2023-11-21T00:39:11;12.00;;;3.90;;
65853;SDS011;52627;48.838;2.402;2023-11-21T00:41:39;10.30;;;3.50;;
65853;SDS011;52627;48.838;2.402;2023-11-21T00:44:06;9.30;;;4.00;;
65853;SDS011;52627;48.838;2.402;2023-11-21T00:46:34;8.40;;;3.50;;
65853;SDS011;52627;48.838;2.402;2023-11-21T00:49:02;8.60;;;3.30;;
65853;SDS011;52627;48.838;2.402;2023-11-21T00:51:31;9.30;;;3.90;;
65853;SDS011;52627;48.838;2.402;2023-11-21T00:53:59;9.20;;;3.70;;
65853;SDS011;52627;48.838;2.402;2023-11-21T00:56:27;11.00;;;3.50;;
65853;SDS011;52627;48.838;2.402;2023-11-21T00:58:54;9.00;;;3.00;;
65853;SDS011;52627;48.838;2.402;2023-11-21T01:01:22;9.00;;;3.30;;
65853;SDS011;52627;48.838;2.402;2023-11-21T01:03:50;8.50;;;3.40;;
65853;SDS011;52627;48.838;2.402;2023-11-21T01:06:18;9.00;;;3.30;;
65853;SDS011;52627;48.838;2.402;2023-11-21T01:08:46;9.50;;;3.70;;
65853;SDS011;52627;48.838;2.402;2023-11-21T01:11:14;8.30;;;3.30;;
65853;SDS011;52627;48.838;2.402;2023-11-21T01:13:42;8.80;;;3.40;;
65853;SDS011;52627;48.838;2.402;2023-11-21T01:16:09;7.90;;;3.30;;
65853;SDS011;52627;48.838;2.402;2023-11-21T01:18:37;9.80;;;3.60;;
65853;SDS011;52627;48.838;2.402;2023-11-21T01:21:05;7.60;;;2.80;;
65853;SDS011;52627;48.838;2.402;2023-11-21T01:23:33;6.90;;;3.10;;
65853;SDS011;52627;48.838;2.402;2023-11-21T01:26:00;8.10;;;3.60;;
65853;SDS011;52627;48.838;2.402;2023-11-21T01:28:28;6.00;;;3.60;;
65853;SDS011;52627;48.838;2.402;2023-11-21T01:30:56;6.50;;;3.30;;
65853;SDS011;52627;48.838;2.402;2023-11-21T01:33:23;6.50;;;3.30;;
65853;SDS011;52627;48.838;2.402;2023-11-21T01:35:52;9.50;;;3.30;;
65853;SDS011;52627;48.838;2.402;2023-11-21T01:38:22;8.50;;;3.40;;
65853;SDS011;52627;48.838;2.402;2023-11-21T01:40:50;8.60;;;3.70;;
65853;SDS011;52627;48.838;2.402;2023-11-21T01:43:17;8.70;;;3.30;;
65853;SDS011;52627;48.838;2.402;2023-11-21T01:45:45;8.30;;;3.30;;
65853;SDS011;52627;48.838;2.402;2023-11-21T01:48:13;8.20;;;3.40;;
65853;SDS011;52627;48.838;2.402;2023-11-21T01:50:42;9.20;;;3.30;;
65853;SDS011;52627;48.838;2.402;2023-11-21T01:53:12;10.80;;;3.50;;
65853;SDS011;52627;48.838;2.402;2023-11-21T01:55:45;7.50;;;3.50;;
65853;SDS011;52627;48.838;2.402;2023-11-21T01:58:12;11.30;;;3.80;;
65853;SDS011;52627;48.838;2.402;2023-11-21T02:00:41;8.60;;;3.50;;
65853;SDS011;52627;48.838;2.402;2023-11-21T02:03:09;8.50;;;2.80;;
65853;SDS011;52627;48.838;2.402;2023-11-21T02:05:37;6.70;;;3.60;;
65853;SDS011;52627;48.838;2.402;2023-11-21T02:08:05;11.10;;;3.80;;
65853;SDS011;52627;48.838;2.402;2023-11-21T02:10:32;10.20;;;3.50;;
65853;SDS011;52627;48.838;2.402;2023-11-21T02:13:00;7.90;;;3.20;;
65853;SDS011;52627;48.838;2.402;2023-11-21T02:15:30;9.50;;;3.40;;
65853;SDS011;52627;48.838;2.402;2023-11-21T02:17:58;11.10;;;3.40;;
65853;SDS011;52627;48.838;2.402;2023-11-21T02:20:26;8.00;;;3.00;;
65853;SDS011;52627;48.838;2.402;2023-11-21T02:22:57;8.00;;;3.40;;
65853;SDS011;52627;48.838;2.402;2023-11-21T02:25:27;8.00;;;3.20;;
65853;SDS011;52627;48.838;2.402;2023-11-21T02:27:57;8.80;;;3.30;;
65853;SDS011;52627;48.838;2.402;2023-11-21T02:30:29;9.10;;;3.40;;
65853;SDS011;52627;48.838;2.402;2023-11-21T02:33:00;7.80;;;3.10;;
65853;SDS011;52627;48.838;2.402;2023-11-21T02:35:29;9.70;;;4.30;;
65853;SDS011;52627;48.838;2.402;2023-11-21T02:37:59;8.00;;;3.20;;
65853;SDS011;52627;48.838;2.402;2023-11-21T02:40:27;9.90;;;3.40;;
65853;SDS011;52627;48.838;2.402;2023-11-21T02:42:55;9.10;;;3.50;;
65853;SDS011;52627;48.838;2.402;2023-11-21T02:45:22;8.20;;;3.00;;
65853;SDS011;52627;48.838;2.402;2023-11-21T02:47:51;8.00;;;3.40;;
65853;SDS011;52627;48.838;2.402;2023-11-21T02:50:21;8.00;;;3.30;;
65853;SDS011;52627;48.838;2.402;2023-11-21T02:52:50;7.10;;;3.00;;
65853;SDS011;52627;48.838;2.402;2023-11-21T02:55:27;8.80;;;3.40;;
65853;SDS011;52627;48.838;2.402;2023-11-21T02:57:55;9.00;;;3.80;;
65853;SDS011;52627;48.838;2.402;2023-11-21T03:00:25;6.90;;;2.80;;
65853;SDS011;52627;48.838;2.402;2023-11-21T03:02:55;9.10;;;3.10;;
65853;SDS011;52627;48.838;2.402;2023-11-21T03:05:23;6.20;;;2.70;;
65853;SDS011;52627;48.838;2.402;2023-11-21T03:07:51;7.00;;;3.00;;
65853;SDS011;52627;48.838;2.402;2023-11-21T03:10:18;8.00;;;2.90;;
65853;SDS011;52627;48.838;2.402;2023-11-21T03:12:46;9.20;;;3.10;;
65853;SDS011;52627;48.838;2.402;2023-11-21T03:15:14;8.20;;;3.10;;
65853;SDS011;52627;48.838;2.402;2023-11-21T03:17:42;7.90;;;3.00;;
65853;SDS011;52627;48.838;2.402;2023-11-21T03:20:10;6.70;;;3.10;;
65853;SDS011;52627;48.838;2.402;2023-11-21T03:22:39;6.50;;;2.50;;
65853;SDS011;52627;48.838;2.402;2023-11-21T03:25:08;7.30;;;2.80;;
65853;SDS011;52627;48.838;2.402;2023-11-21T03:27:39;6.20;;;3.20;;
65853;SDS011;52627;48.838;2.402;2023-11-21T03:30:08;6.50;;;2.90;;
65853;SDS011;52627;48.838;2.402;2023-11-21T03:32:36;8.20;;;3.30;;
65853;SDS011;52627;48.838;2.402;2023-11-21T03:35:04;7.90;;;3.00;;
65853;SDS011;52627;48.838;2.402;2023-11-21T03:37:33;7.00;;;2.90;;
65853;SDS011;52627;48.838;2.402;2023-11-21T03:40:01;7.70;;;3.60;;
65853;SDS011;52627;48.838;2.402;2023-11-21T03:42:31;8.10;;;3.50;;
65853;SDS011;52627;48.838;2.402;2023-11-21T03:44:59;9.80;;;3.50;;
65853;SDS011;52627;48.838;2.402;2023-11-21T03:47:28;7.30;;;3.20;;
65853;SDS011;52627;48.838;2.402;2023-11-21T03:49:56;7.90;;;3.30;;
65853;SDS011;52627;48.838;2.402;2023-11-21T03:52:24;8.00;;;3.00;;
65853;SDS011;52627;48.838;2.402;2023-11-21T03:54:52;9.10;;;3.10;;
65853;SDS011;52627;48.838;2.402;2023-11-21T03:57:20;8.10;;;3.90;;
65853;SDS011;52627;48.838;2.402;2023-11-21T03:59:48;6.80;;;3.10;;
65853;SDS011;52627;48.838;2.402;2023-11-21T04:02:15;10.00;;;3.70;;
65853;SDS011;52627;48.838;2.402;2023-11-21T04:04:43;8.10;;;2.90;;
65853;SDS011;52627;48.838;2.402;2023-11-21T04:07:11;7.50;;;3.00;;
65853;SDS011;52627;48.838;2.402;2023-11-21T04:09:40;7.20;;;3.10;;
65853;SDS011;52627;48.838;2.402;2023-11-21T04:12:08;8.80;;;3.10;;
65853;SDS011;52627;48.838;2.402;2023-11-21T04:14:37;8.40;;;3.30;;
65853;SDS011;52627;48.838;2.402;2023-11-21T04:17:04;8.70;;;3.90;;
65853;SDS011;52627;48.838;2.402;2023-11-21T04:19:32;8.70;;;3.00;;
65853;SDS011;52627;48.838;2.402;2023-11-21T04:22:01;7.60;;;3.10;;
65853;SDS011;52627;48.838;2.402;2023-11-21T04:24:29;7.10;;;2.80;;
65853;SDS011;52627;48.838;2.402;2023-11-21T04:26:57;9.40;;;3.30;;
65853;SDS011;52627;48.838;2.402;2023-11-21T04:29:24;8.10;;;3.30;;
65853;SDS011;52627;48.838;2.402;2023-11-21T04:31:52;8.20;;;2.90;;
65853;SDS011;52627;48.838;2.402;2023-11-21T04:34:19;8.30;;;3.20;;
65853;SDS011;52627;48.838;2.402;2023-11-21T04:36:47;6.40;;;2.70;;
65853;SDS011;52627;48.838;2.402;2023-11-21T04:39:14;6.10;;;3.20;;
65853;SDS011;52627;48.838;2.402;2023-11-21T04:41:42;6.80;;;3.10;;
65853;SDS011;52627;48.838;2.402;2023-11-21T04:44:10;6.40;;;3.10;;
65853;SDS011;52627;48.838;2.402;2023-11-21T04:46:37;8.40;;;3.70;;
65853;SDS011;52627;48.838;2.402;2023-11-21T04:49:05;5.60;;;3.10;;
65853;SDS011;52627;48.838;2.402;2023-11-21T04:51:33;8.20;;;3.70;;
65853;SDS011;52627;48.838;2.402;2023-11-21T04:54:01;9.50;;;4.10;;
65853;SDS011;52627;48.838;2.402;2023-11-21T04:56:28;12.20;;;4.60;;
65853;SDS011;52627;48.838;2.402;2023-11-21T04:58:56;7.40;;;4.00;;
65853;SDS011;52627;48.838;2.402;2023-11-21T05:01:23;6.30;;;3.60;;
65853;SDS011;52627;48.838;2.402;2023-11-21T05:03:51;8.10;;;4.00;;
65853;SDS011;52627;48.838;2.402;2023-11-21T05:06:20;9.60;;;4.60;;
65853;SDS011;52627;48.838;2.402;2023-11-21T05:08:47;9.80;;;4.50;;
65853;SDS011;52627;48.838;2.402;2023-11-21T05:11:25;7.90;;;4.90;;
65853;SDS011;52627;48.838;2.402;2023-11-21T05:13:54;8.90;;;4.90;;
65853;SDS011;52627;48.838;2.402;2023-11-21T05:16:26;8.00;;;4.50;;
65853;SDS011;52627;48.838;2.402;2023-11-21T05:18:55;11.00;;;4.90;;
65853;SDS011;52627;48.838;2.402;2023-11-21T05:21:27;8.30;;;5.00;;
65853;SDS011;52627;48.838;2.402;2023-11-21T05:23:57;8.50;;;5.50;;
65853;SDS011;52627;48.838;2.402;2023-11-21T05:26:25;7.90;;;5.50;;
65853;SDS011;52627;48.838;2.402;2023-11-21T05:28:52;7.70;;;4.70;;
65853;SDS011;52627;48.838;2.402;2023-11-21T05:31:20;7.90;;;5.30;;
65853;SDS011;52627;48.838;2.402;2023-11-21T05:33:47;8.10;;;5.10;;
65853;SDS011;52627;48.838;2.402;2023-11-21T05:36:15;10.80;;;5.70;;
65853;SDS011;52627;48.838;2.402;2023-11-21T05:38:42;8.50;;;5.10;;
65853;SDS011;52627;48.838;2.402;2023-11-21T05:41:10;9.10;;;5.70;;
65853;SDS011;52627;48.838;2.402;2023-11-21T05:43:40;8.90;;;6.00;;
65853;SDS011;52627;48.838;2.402;2023-11-21T05:46:08;9.00;;;5.80;;
65853;SDS011;52627;48.838;2.402;2023-11-21T05:48:36;11.10;;;6.40;;
65853;SDS011;52627;48.838;2.402;2023-11-21T05:51:07;9.70;;;5.50;;
65853;SDS011;52627;48.838;2.402;2023-11-21T05:53:35;8.50;;;5.90;;
65853;SDS011;52627;48.838;2.402;2023-11-21T05:56:03;9.90;;;6.30;;
65853;SDS011;52627;48.838;2.402;2023-11-21T05:58:31;10.70;;;6.40;;
65853;SDS011;52627;48.838;2.402;2023-11-21T06:00:59;10.70;;;6.10;;
65853;SDS011;52627;48.838;2.402;2023-11-21T06:03:26;11.50;;;5.60;;
65853;SDS011;52627;48.838;2.402;2023-11-21T06:05:54;9.40;;;5.50;;
65853;SDS011;52627;48.838;2.402;2023-11-21T06:08:21;8.00;;;5.70;;
65853;SDS011;52627;48.838;2.402;2023-11-21T06:10:49;9.00;;;5.70;;
65853;SDS011;52627;48.838;2.402;2023-11-21T06:13:16;11.90;;;6.30;;
65853;SDS011;52627;48.838;2.402;2023-11-21T06:15:47;9.00;;;5.70;;
65853;SDS011;52627;48.838;2.402;2023-11-21T06:18:15;10.00;;;6.50;;
65853;SDS011;52627;48.838;2.402;2023-11-21T06:20:42;7.70;;;5.30;;
65853;SDS011;52627;48.838;2.402;2023-11-21T06:23:10;8.90;;;5.90;;
65853;SDS011;52627;48.838;2.402;2023-11-21T06:25:38;9.40;;;5.90;;
65853;SDS011;52627;48.838;2.402;2023-11-21T06:28:06;8.70;;;5.20;;
65853;SDS011;52627;48.838;2.402;2023-11-21T06:30:34;8.40;;;5.00;;
65853;SDS011;52627;48.838;2.402;2023-11-21T06:33:01;8.90;;;5.70;;
65853;SDS011;52627;48.838;2.402;2023-11-21T06:35:29;7.40;;;4.60;;
65853;SDS011;52627;48.838;2.402;2023-11-21T06:38:00;7.40;;;4.20;;
65853;SDS011;52627;48.838;2.402;2023-11-21T06:40:27;7.20;;;4.00;;
65853;SDS011;52627;48.838;2.402;2023-11-21T06:42:55;6.20;;;4.00;;
65853;SDS011;52627;48.838;2.402;2023-11-21T06:45:36;6.00;;;3.60;;
65853;SDS011;52627;48.838;2.402;2023-11-21T06:48:26;6.10;;;3.80;;
65853;SDS011;52627;48.838;2.402;2023-11-21T06:51:09;7.20;;;4.10;;
65853;SDS011;52627;48.838;2.402;2023-11-21T06:53:46;5.80;;;3.80;;
65853;SDS011;52627;48.838;2.402;2023-11-21T06:56:17;6.30;;;4.10;;
65853;SDS011;52627;48.838;2.402;2023-11-21T06:58:46;6.00;;;3.90;;
65853;SDS011;52627;48.838;2.402;2023-11-21T07:01:14;5.70;;;3.60;;
65853;SDS011;52627;48.838;2.402;2023-11-21T07:03:56;6.90;;;3.80;;
65853;SDS011;52627;48.838;2.402;2023-11-21T07:06:23;6.60;;;4.20;;
65853;SDS011;52627;48.838;2.402;2023-11-21T07:08:51;7.50;;;4.30;;
65853;SDS011;52627;48.838;2.402;2023-11-21T07:11:20;6.60;;;4.00;;
65853;SDS011;52627;48.838;2.402;2023-11-21T07:13:50;6.40;;;4.30;;
65853;SDS011;52627;48.838;2.402;2023-11-21T07:16:28;7.70;;;5.10;;
65853;SDS011;52627;48.838;2.402;2023-11-21T07:18:58;5.80;;;4.10;;
65853;SDS011;52627;48.838;2.402;2023-11-21T07:21:26;6.50;;;3.60;;
65853;SDS011;52627;48.838;2.402;2023-11-21T07:23:53;6.80;;;3.80;;
65853;SDS011;52627;48.838;2.402;2023-11-21T07:26:21;7.50;;;4.30;;
65853;SDS011;52627;48.838;2.402;2023-11-21T07:28:48;6.70;;;4.10;;
65853;SDS011;52627;48.838;2.402;2023-11-21T07:31:16;8.60;;;5.30;;
65853;SDS011;52627;48.838;2.402;2023-11-21T07:33:43;8.90;;;5.00;;
65853;SDS011;52627;48.838;2.402;2023-11-21T07:36:30;7.60;;;5.70;;
65853;SDS011;52627;48.838;2.402;2023-11-21T07:38:57;8.70;;;5.80;;
65853;SDS011;52627;48.838;2.402;2023-11-21T07:41:25;9.00;;;5.90;;
65853;SDS011;52627;48.838;2.402;2023-11-21T07:43:58;9.70;;;6.60;;
65853;SDS011;52627;48.838;2.402;2023-11-21T07:46:26;10.50;;;6.50;;
65853;SDS011;52627;48.838;2.402;2023-11-21T07:48:54;10.10;;;6.60;;
65853;SDS011;52627;48.838;2.402;2023-11-21T07:51:22;11.70;;;7.30;;
65853;SDS011;52627;48.838;2.402;2023-11-21T07:53:50;10.50;;;6.50;;
65853;SDS011;52627;48.838;2.402;2023-11-21T07:56:17;12.20;;;7.30;;
65853;SDS011;52627;48.838;2.402;2023-11-21T07:58:45;10.20;;;7.40;;
65853;SDS011;52627;48.838;2.402;2023-11-21T08:01:13;12.00;;;7.50;;
65853;SDS011;52627;48.838;2.402;2023-11-21T08:03:40;10.30;;;6.70;;
65853;SDS011;52627;48.838;2.402;2023-11-21T08:06:09;11.30;;;7.20;;
65853;SDS011;52627;48.838;2.402;2023-11-21T08:11:18;14.00;;;7.40;;
65853;SDS011;52627;48.838;2.402;2023-11-21T08:13:49;15.50;;;8.00;;
65853;SDS011;52627;48.838;2.402;2023-11-21T08:16:21;12.20;;;7.70;;
65853;SDS011;52627;48.838;2.402;2023-11-21T08:18:51;13.40;;;7.60;;
65853;SDS011;52627;48.838;2.402;2023-11-21T08:21:22;12.30;;;8.30;;
65853;SDS011;52627;48.838;2.402;2023-11-21T08:23:56;11.90;;;7.50;;
65853;SDS011;52627;48.838;2.402;2023-11-21T08:26:24;11.70;;;8.10;;
65853;SDS011;52627;48.838;2.402;2023-11-21T08:28:52;11.60;;;8.20;;
65853;SDS011;52627;48.838;2.402;2023-11-21T08:31:27;13.40;;;9.50;;
65853;SDS011;52627;48.838;2.402;2023-11-21T08:33:56;13.40;;;8.20;;
65853;SDS011;52627;48.838;2.402;2023-11-21T08:36:24;13.70;;;8.70;;
65853;SDS011;52627;48.838;2.402;2023-11-21T08:38:52;14.10;;;8.80;;
65853;SDS011;52627;48.838;2.402;2023-11-21T08:41:20;13.70;;;8.80;;
65853;SDS011;52627;48.838;2.402;2023-11-21T08:43:51;15.20;;;9.80;;
65853;SDS011;52627;48.838;2.402;2023-11-21T08:46:19;14.20;;;8.10;;
65853;SDS011;52627;48.838;2.402;2023-11-21T08:48:47;15.20;;;8.20;;
65853;SDS011;52627;48.838;2.402;2023-11-21T08:51:15;13.80;;;8.90;;
65853;SDS011;52627;48.838;2.402;2023-11-21T08:53:43;13.70;;;8.30;;
65853;SDS011;52627;48.838;2.402;2023-11-21T08:56:14;15.30;;;9.10;;
65853;SDS011;52627;48.838;2.402;2023-11-21T08:58:42;13.20;;;8.50;;
65853;SDS011;52627;48.838;2.402;2023-11-21T09:01:10;15.20;;;8.60;;
65853;SDS011;52627;48.838;2.402;2023-11-21T09:03:39;14.80;;;8.80;;
65853;SDS011;52627;48.838;2.402;2023-11-21T09:06:08;15.60;;;9.10;;
65853;SDS011;52627;48.838;2.402;2023-11-21T09:08:37;14.90;;;8.20;;
65853;SDS011;52627;48.838;2.402;2023-11-21T09:11:05;13.10;;;8.00;;
65853;SDS011;52627;48.838;2.402;2023-11-21T09:13:33;15.30;;;8.50;;
65853;SDS011;52627;48.838;2.402;2023-11-21T09:16:02;16.20;;;9.80;;
65853;SDS011;52627;48.838;2.402;2023-11-21T09:18:29;15.50;;;9.30;;
65853;SDS011;52627;48.838;2.402;2023-11-21T09:20:58;16.20;;;9.30;;
65853;SDS011;52627;48.838;2.402;2023-11-21T09:23:26;14.00;;;8.30;;
65853;SDS011;52627;48.838;2.402;2023-11-21T09:25:53;17.40;;;8.20;;
65853;SDS011;52627;48.838;2.402;2023-11-21T09:28:24;16.80;;;8.50;;
65853;SDS011;52627;48.838;2.402;2023-11-21T09:30:52;14.60;;;8.20;;
65853;SDS011;52627;48.838;2.402;2023-11-21T09:33:20;15.10;;;8.80;;
65853;SDS011;52627;48.838;2.402;2023-11-21T09:35:49;13.00;;;8.20;;
65853;SDS011;52627;48.838;2.402;2023-11-21T09:38:18;15.90;;;8.80;;
65853;SDS011;52627;48.838;2.402;2023-11-21T09:40:46;15.20;;;8.50;;
65853;SDS011;52627;48.838;2.402;2023-11-21T09:43:16;12.10;;;7.30;;
65853;SDS011;52627;48.838;2.402;2023-11-21T09:45:47;14.00;;;9.00;;
65853;SDS011;52627;48.838;2.402;2023-11-21T09:48:16;15.50;;;9.00;;
65853;SDS011;52627;48.838;2.402;2023-11-21T09:50:46;13.70;;;9.30;;
65853;SDS011;52627;48.838;2.402;2023-11-21T09:53:21;17.90;;;11.80;;
65853;SDS011;52627;48.838;2.402;2023-11-21T09:55:52;16.90;;;11.30;;
65853;SDS011;52627;48.838;2.402;2023-11-21T09:58:21;23.20;;;16.10;;
65853;SDS011;52627;48.838;2.402;2023-11-21T10:00:53;29.60;;;18.70;;
65853;SDS011;52627;48.838;2.402;2023-11-21T10:03:24;34.10;;;17.70;;
65853;SDS011;52627;48.838;2.402;2023-11-21T10:05:53;28.90;;;17.20;;
65853;SDS011;52627;48.838;2.402;2023-11-21T10:08:22;26.70;;;15.80;;
65853;SDS011;52627;48.838;2.402;2023-11-21T10:10:53;37.10;;;21.50;;
65853;SDS011;52627;48.838;2.402;2023-11-21T10:13:21;16.90;;;10.00;;
65853;SDS011;52627;48.838;2.402;2023-11-21T10:15:52;14.20;;;8.10;;
65853;SDS011;52627;48.838;2.402;2023-11-21T10:18:21;14.50;;;8.20;;
65853;SDS011;52627;48.838;2.402;2023-11-21T10:20:50;16.50;;;8.00;;
65853;SDS011;52627;48.838;2.402;2023-11-21T10:23:22;10.20;;;6.70;;
65853;SDS011;52627;48.838;2.402;2023-11-21T10:25:52;9.50;;;5.40;;
65853;SDS011;52627;48.838;2.402;2023-11-21T10:28:21;13.50;;;5.80;;
65853;SDS011;52627;48.838;2.402;2023-11-21T10:30:49;9.70;;;5.60;;
65853;SDS011;52627;48.838;2.402;2023-11-21T10:33:17;8.50;;;5.10;;
65853;SDS011;52627;48.838;2.402;2023-11-21T10:35:45;9.90;;;5.20;;
65853;SDS011;52627;48.838;2.402;2023-11-21T10:38:22;7.30;;;4.50;;
65853;SDS011;52627;48.838;2.402;2023-11-21T10:40:54;9.10;;;4.00;;
65853;SDS011;52627;48.838;2.402;2023-11-21T10:43:25;7.70;;;3.80;;
65853;SDS011;52627;48.838;2.402;2023-11-21T10:45:57;8.90;;;5.20;;
65853;SDS011;52627;48.838;2.402;2023-11-21T10:48:27;9.10;;;4.10;;
65853;SDS011;52627;48.838;2.402;2023-11-21T10:50:54;7.20;;;4.10;;
65853;SDS011;52627;48.838;2.402;2023-11-21T10:53:28;7.30;;;3.50;;
65853;SDS011;52627;48.838;2.402;2023-11-21T10:56:02;7.80;;;4.30;;
65853;SDS011;52627;48.838;2.402;2023-11-21T10:58:38;6.50;;;3.80;;
65853;SDS011;52627;48.838;2.402;2023-11-21T11:01:06;7.70;;;4.30;;
65853;SDS011;52627;48.838;2.402;2023-11-21T11:03:36;8.20;;;3.80;;
65853;SDS011;52627;48.838;2.402;2023-11-21T11:06:05;7.20;;;4.00;;
65853;SDS011;52627;48.838;2.402;2023-11-21T11:11:04;6.80;;;3.90;;
65853;SDS011;52627;48.838;2.402;2023-11-21T11:13:33;7.80;;;3.50;;
65853;SDS011;52627;48.838;2.402;2023-11-21T11:16:01;7.50;;;3.70;;
65853;SDS011;52627;48.838;2.402;2023-11-21T11:18:30;7.10;;;3.90;;
65853;SDS011;52627;48.838;2.402;2023-11-21T11:21:34;7.30;;;3.70;;
65853;SDS011;52627;48.838;2.402;2023-11-21T11:27:25;8.50;;;4.30;;
65853;SDS011;52627;48.838;2.402;2023-11-21T11:36:17;9.20;;;4.50;;
65853;SDS011;52627;48.838;2.402;2023-11-21T11:38:49;8.30;;;4.00;;
65853;SDS011;52627;48.838;2.402;2023-11-21T11:41:30;5.30;;;3.00;;
65853;SDS011;52627;48.838;2.402;2023-11-21T11:44:01;4.30;;;2.60;;
65853;SDS011;52627;48.838;2.402;2023-11-21T11:46:42;6.40;;;3.30;;
65853;SDS011;52627;48.838;2.402;2023-11-21T11:49:27;6.00;;;2.90;;
65853;SDS011;52627;48.838;2.402;2023-11-21T11:55:13;5.10;;;2.80;;
65853;SDS011;52627;48.838;2.402;2023-11-21T11:57:42;5.50;;;2.90;;
65853;SDS011;52627;48.838;2.402;2023-11-21T12:00:12;7.10;;;3.00;;
65853;SDS011;52627;48.838;2.402;2023-11-21T12:02:47;14.50;;;3.30;;
65853;SDS011;52627;48.838;2.402;2023-11-21T12:05:17;6.70;;;2.80;;
65853;SDS011;52627;48.838;2.402;2023-11-21T12:07:51;6.70;;;4.10;;
65853;SDS011;52627;48.838;2.402;2023-11-21T12:10:24;6.10;;;3.50;;
65853;SDS011;52627;48.838;2.402;2023-11-21T12:12:54;11.70;;;6.00;;
65853;SDS011;52627;48.838;2.402;2023-11-21T12:15:24;30.80;;;5.90;;
65853;SDS011;52627;48.838;2.402;2023-11-21T12:17:58;9.80;;;4.30;;
65853;SDS011;52627;48.838;2.402;2023-11-21T12:20:27;6.10;;;3.50;;
65853;SDS011;52627;48.838;2.402;2023-11-21T12:22:57;7.60;;;4.80;;
65853;SDS011;52627;48.838;2.402;2023-11-21T12:25:30;4.60;;;3.10;;
65853;SDS011;52627;48.838;2.402;2023-11-21T12:28:04;5.80;;;3.30;;
65853;SDS011;52627;48.838;2.402;2023-11-21T12:30:34;8.50;;;3.50;;
65853;SDS011;52627;48.838;2.402;2023-11-21T12:33:05;5.70;;;2.70;;
65853;SDS011;52627;48.838;2.402;2023-11-21T12:35:37;6.40;;;3.00;;
65853;SDS011;52627;48.838;2.402;2023-11-21T12:38:05;6.80;;;3.50;;
65853;SDS011;52627;48.838;2.402;2023-11-21T12:40:33;6.10;;;2.80;;
65853;SDS011;52627;48.838;2.402;2023-11-21T12:43:01;6.90;;;3.00;;
65853;SDS011;52627;48.838;2.402;2023-11-21T12:45:31;5.50;;;3.30;;
65853;SDS011;52627;48.838;2.402;2023-11-21T12:48:05;6.30;;;3.30;;
65853;SDS011;52627;48.838;2.402;2023-11-21T12:50:39;7.10;;;3.80;;
65853;SDS011;52627;48.838;2.402;2023-11-21T12:53:09;7.30;;;4.10;;
65853;SDS011;52627;48.838;2.402;2023-11-21T12:55:40;6.00;;;3.70;;
65853;SDS011;52627;48.838;2.402;2023-11-21T12:58:10;5.10;;;3.30;;
65853;SDS011;52627;48.838;2.402;2023-11-21T13:00:39;7.40;;;3.40;;
65853;SDS011;52627;48.838;2.402;2023-11-21T13:03:12;5.50;;;3.30;;
65853;SDS011;52627;48.838;2.402;2023-11-21T13:05:46;5.30;;;3.20;;
65853;SDS011;52627;48.838;2.402;2023-11-21T13:08:21;7.70;;;4.60;;
65853;SDS011;52627;48.838;2.402;2023-11-21T13:10:52;6.30;;;3.60;;
65853;SDS011;52627;48.838;2.402;2023-11-21T13:13:28;6.00;;;3.30;;
65853;SDS011;52627;48.838;2.402;2023-11-21T13:18:31;4.70;;;2.90;;
65853;SDS011;52627;48.838;2.402;2023-11-21T13:21:01;5.60;;;3.30;;
65853;SDS011;52627;48.838;2.402;2023-11-21T13:23:35;5.60;;;3.10;;
65853;SDS011;52627;48.838;2.402;2023-11-21T13:26:06;5.40;;;3.10;;
65853;SDS011;52627;48.838;2.402;2023-11-21T13:28:35;6.30;;;3.30;;
65853;SDS011;52627;48.838;2.402;2023-11-21T13:31:06;8.00;;;3.60;;
65853;SDS011;52627;48.838;2.402;2023-11-21T13:33:39;7.40;;;3.70;;
65853;SDS011;52627;48.838;2.402;2023-11-21T13:36:10;7.50;;;3.90;;
65853;SDS011;52627;48.838;2.402;2023-11-21T13:38:39;10.40;;;5.20;;
65853;SDS011;52627;48.838;2.402;2023-11-21T13:41:10;7.80;;;5.00;;
65853;SDS011;52627;48.838;2.402;2023-11-21T13:43:41;7.90;;;3.30;;
65853;SDS011;52627;48.838;2.402;2023-11-21T13:46:15;5.80;;;2.90;;
65853;SDS011;52627;48.838;2.402;2023-11-21T13:48:50;6.70;;;4.10;;
65853;SDS011;52627;48.838;2.402;2023-11-21T13:51:24;7.10;;;3.10;;
65853;SDS011;52627;48.838;2.402;2023-11-21T13:54:12;4.80;;;2.60;;
65853;SDS011;52627;48.838;2.402;2023-11-21T13:56:41;5.40;;;2.80;;
65853;SDS011;52627;48.838;2.402;2023-11-21T13:59:12;5.00;;;2.80;;
65853;SDS011;52627;48.838;2.402;2023-11-21T14:01:56;12.30;;;6.10;;
65853;SDS011;52627;48.838;2.402;2023-11-21T14:04:28;6.20;;;3.10;;
65853;SDS011;52627;48.838;2.402;2023-11-21T14:07:07;6.80;;;3.00;;
65853;SDS011;52627;48.838;2.402;2023-11-21T14:09:53;5.30;;;2.60;;
65853;SDS011;52627;48.838;2.402;2023-11-21T14:12:21;4.60;;;2.30;;
65853;SDS011;52627;48.838;2.402;2023-11-21T14:14:49;6.00;;;2.50;;
65853;SDS011;52627;48.838;2.402;2023-11-21T14:17:17;11.80;;;7.00;;
65853;SDS011;52627;48.838;2.402;2023-11-21T14:19:44;9.70;;;3.40;;
65853;SDS011;52627;48.838;2.402;2023-11-21T14:22:12;6.50;;;3.80;;
65853;SDS011;52627;48.838;2.402;2023-11-21T14:24:40;7.10;;;3.40;;
65853;SDS011;52627;48.838;2.402;2023-11-21T14:27:13;4.70;;;2.20;;
65853;SDS011;52627;48.838;2.402;2023-11-21T14:29:42;4.30;;;2.50;;
65853;SDS011;52627;48.838;2.402;2023-11-21T14:32:12;6.00;;;3.60;;
65853;SDS011;52627;48.838;2.402;2023-11-21T14:34:40;10.40;;;5.70;;
65853;SDS011;52627;48.838;2.402;2023-11-21T14:37:10;9.70;;;4.60;;
65853;SDS011;52627;48.838;2.402;2023-11-21T14:39:41;15.80;;;10.40;;
65853;SDS011;52627;48.838;2.402;2023-11-21T14:42:13;8.00;;;4.60;;
65853;SDS011;52627;48.838;2.402;2023-11-21T14:44:43;5.20;;;3.00;;
65853;SDS011;52627;48.838;2.402;2023-11-21T14:47:11;5.20;;;2.50;;
65853;SDS011;52627;48.838;2.402;2023-11-21T14:49:45;5.90;;;2.80;;
65853;SDS011;52627;48.838;2.402;2023-11-21T14:52:24;6.40;;;2.90;;
65853;SDS011;52627;48.838;2.402;2023-11-21T14:55:04;5.40;;;2.90;;
65853;SDS011;52627;48.838;2.402;2023-11-21T14:57:48;6.00;;;3.20;;
65853;SDS011;52627;48.838;2.402;2023-11-21T15:00:20;5.00;;;2.50;;
65853;SDS011;52627;48.838;2.402;2023-11-21T15:03:04;5.90;;;2.30;;
65853;SDS011;52627;48.838;2.402;2023-11-21T15:05:32;5.00;;;2.00;;
65853;SDS011;52627;48.838;2.402;2023-11-21T15:08:02;4.00;;;2.00;;
65853;SDS011;52627;48.838;2.402;2023-11-21T15:10:48;4.60;;;1.80;;
65853;SDS011;52627;48.838;2.402;2023-11-21T15:13:21;3.50;;;1.70;;
65853;SDS011;52627;48.838;2.402;2023-11-21T15:15:51;5.00;;;1.70;;
65853;SDS011;52627;48.838;2.402;2023-11-21T15:18:22;3.90;;;1.80;;
65853;SDS011;52627;48.838;2.402;2023-11-21T15:20:50;3.80;;;1.80;;